| time (UTC) | temp F | wind direction | speed MPH | gust MPH | rain 1hr in | rain 24hr in | rain mn in | humidity % | barometer mb |
| 20260902130211 | 58 | 90 | 0.0 | 1.0 | 0.00 | 0.37 | 0.01 | 94 | 1150.3 |
| 20260902125211 | 58 | 180 | 0.0 | 0.0 | 0.00 | 0.37 | 0.01 | 95 | 1150.2 |
| 20260902124214 | 58 | 90 | 1.0 | 1.0 | 0.00 | 0.37 | 0.01 | 95 | 1150.3 |
| 20260902123310 | 58 | 90 | 0.0 | 2.0 | 0.00 | 0.37 | 0.01 | 95 | 1150.2 |
| 20260902122409 | 58 | 90 | 3.0 | 6.0 | 0.00 | 0.37 | 0.01 | 97 | 1150.1 |
| 20260902121425 | 58 | 45 | 0.0 | 3.0 | 0.00 | 0.38 | 0.01 | 97 | 1149.9 |
| 20260902120511 | 57 | 45 | 0.0 | 0.0 | 0.00 | 0.38 | 0.01 | 97 | 1150.1 |
| 20260902115525 | 57 | 315 | 0.0 | 0.0 | 0.00 | 0.40 | 0.01 | 98 | 1150.0 |
| 20260902114609 | 57 | 37 | 0.0 | 0.0 | 0.00 | 0.42 | 0.01 | 97 | 1150.1 |
| 20260902113611 | 56 | 45 | 0.0 | 0.0 | 0.00 | 0.44 | 0.01 | 97 | 1150.2 |
| 20260902112610 | 56 | 45 | 0.0 | 0.0 | 0.00 | 0.48 | 0.01 | 99 | 1150.2 |
| 20260902111611 | 56 | 45 | 0.0 | 0.0 | 0.00 | 0.53 | 0.01 | 99 | 1150.5 |
| 20260902110609 | 56 | 45 | 0.0 | 0.0 | 0.00 | 0.55 | 0.01 | 98 | 1150.5 |
| 20260902105610 | 56 | 45 | 0.0 | 0.0 | 0.00 | 0.57 | 0.01 | 99 | 1150.2 |
| 20260902104709 | 57 | 45 | 0.0 | 0.0 | 0.00 | 0.61 | 0.01 | 99 | 1150.2 |
| 20260902103725 | 57 | 45 | 0.0 | 0.0 | 0.00 | 0.63 | 0.01 | 99 | 1150.0 |
| 20260902102709 | 57 | 45 | 0.0 | 0.0 | 0.00 | 0.66 | 0.01 | 100 | 1150.0 |
| 20260902101725 | 57 | 45 | 0.0 | 0.0 | 0.00 | 0.66 | 0.01 | 99 | 1149.8 |
| 20260902100711 | 57 | 45 | 0.0 | 0.0 | 0.00 | 0.66 | 0.01 | 100 | 1149.6 |
| 20260902094825 | 57 | 45 | 0.0 | 0.0 | 0.00 | 0.66 | 0.01 | 99 | 1149.5 |
| 20260902093811 | 57 | 45 | 0.0 | 0.0 | 0.00 | 0.66 | 0.01 | 99 | 1149.4 |
| 20260902091827 | 57 | 45 | 0.0 | 0.0 | 0.00 | 0.66 | 0.01 | 100 | 1149.2 |
| 20260902090825 | 57 | 45 | 0.0 | 0.0 | 0.00 | 0.66 | 0.01 | 99 | 1149.2 |
| 20260902085827 | 57 | 45 | 0.0 | 0.0 | 0.00 | 0.66 | 0.01 | 99 | 1149.1 |
| 20260902084913 | 57 | 45 | 0.0 | 0.0 | 0.00 | 0.66 | 0.01 | 100 | 1149.0 |
| 20260902082109 | 57 | 45 | 0.0 | 0.0 | 0.00 | 0.66 | 0.01 | 99 | 1148.8 |
| 20260902081111 | 57 | 45 | 0.0 | 0.0 | 0.00 | 0.66 | 0.01 | 100 | 1148.8 |
| 20260902080110 | 57 | 45 | 0.0 | 1.0 | 0.00 | 0.66 | 0.01 | 99 | 1149.0 |
| 20260902075209 | 57 | 45 | 0.0 | 0.0 | 0.00 | 0.66 | 0.01 | 99 | 1149.0 |
| 20260902074210 | 57 | 45 | 0.0 | 0.0 | 0.00 | 0.66 | 0.01 | 99 | 1149.1 |
| 20260902073210 | 57 | 47 | 1.0 | 2.0 | 0.00 | 0.66 | 0.01 | 99 | 1149.0 |
| 20260902070226 | 57 | 45 | 0.0 | 0.0 | 0.00 | 0.66 | 0.01 | 100 | 1149.1 |
| 20260902065226 | 57 | 90 | 0.0 | 2.0 | 0.00 | 0.66 | 0.01 | 99 | 1148.9 |
| 20260902064309 | 57 | 90 | 0.0 | 0.0 | 0.00 | 0.66 | 0.01 | 100 | 1149.2 |
| 20260902063311 | 57 | 89 | 0.0 | 0.0 | 0.00 | 0.66 | 0.01 | 100 | 1149.1 |
| 20260902062410 | 57 | 90 | 0.0 | 2.0 | 0.00 | 0.66 | 0.01 | 100 | 1149.2 |
| 20260902061411 | 57 | 22 | 0.0 | 0.0 | 0.00 | 0.66 | 0.01 | 100 | 1149.0 |
| 20260902055411 | 57 | 360 | 0.0 | 0.0 | 0.00 | 0.66 | 0.01 | 100 | 1149.0 |
| 20260902053509 | 57 | 45 | 0.0 | 0.0 | 0.00 | 0.66 | 0.01 | 100 | 1148.9 |
| 20260902052508 | 57 | 122 | 2.0 | 3.0 | 0.00 | 0.66 | 0.01 | 100 | 1148.7 |
| 20260902051509 | 58 | 90 | 1.0 | 3.0 | 0.00 | 0.66 | 0.01 | 99 | 1148.6 |
| 20260902045511 | 58 | 360 | 0.0 | 0.0 | 0.01 | 0.66 | 0.01 | 99 | 1148.7 |
| 20260902044510 | 58 | 45 | 0.0 | 1.0 | 0.01 | 0.66 | 0.01 | 100 | 1148.4 |
| 20260902043509 | 58 | 45 | 0.0 | 1.0 | 0.01 | 0.66 | 0.01 | 100 | 1148.3 |
| 20260902041510 | 58 | 90 | 2.0 | 4.0 | 0.01 | 0.66 | 0.01 | 100 | 1148.1 |
| 20260902040525 | 58 | 85 | 3.0 | 4.0 | 0.01 | 0.66 | 0.01 | 100 | 1147.7 |
| 20260902035531 | 58 | 90 | 1.0 | 2.0 | 0.00 | 0.65 | 0.65 | 100 | 1147.6 |
| 20260902033615 | 58 | 360 | 0.0 | 0.0 | 0.00 | 0.65 | 0.65 | 100 | 1147.4 |
| 20260902031613 | 58 | 330 | 0.0 | 1.0 | 0.00 | 0.65 | 0.65 | 100 | 1147.3 |
| 20260902030627 | 58 | 45 | 1.0 | 2.0 | 0.00 | 0.65 | 0.65 | 99 | 1147.4 |
| 20260902024613 | 58 | 45 | 0.0 | 1.0 | 0.00 | 0.65 | 0.65 | 100 | 1147.5 |
| 20260902023613 | 58 | 45 | 2.0 | 3.0 | 0.00 | 0.65 | 0.65 | 100 | 1147.6 |
| 20260902022613 | 58 | 360 | 0.0 | 0.0 | 0.00 | 0.65 | 0.65 | 100 | 1147.7 |
| 20260902020613 | 58 | 360 | 0.0 | 0.0 | 0.00 | 0.65 | 0.65 | 100 | 1147.8 |
| 20260902015711 | 58 | 67 | 0.0 | 0.0 | 0.00 | 0.65 | 0.65 | 100 | 1147.7 |
| 20260902014811 | 58 | 67 | 0.0 | 0.0 | 0.00 | 0.65 | 0.65 | 100 | 1147.6 |
| 20260902013813 | 58 | 45 | 0.0 | 0.0 | 0.00 | 0.65 | 0.65 | 100 | 1147.4 |
| 20260902012814 | 58 | 45 | 0.0 | 1.0 | 0.00 | 0.65 | 0.65 | 100 | 1147.4 |
| 20260902011813 | 58 | 45 | 0.0 | 0.0 | 0.00 | 0.65 | 0.65 | 100 | 1147.4 |
| 20260902010829 | 58 | 45 | 0.0 | 1.0 | 0.00 | 0.65 | 0.65 | 99 | 1147.4 |
| 20260902005928 | 58 | 45 | 1.0 | 2.0 | 0.00 | 0.65 | 0.65 | 99 | 1147.2 |
| 20260902003930 | 58 | 45 | 0.0 | 0.0 | 0.00 | 0.65 | 0.65 | 100 | 1146.9 |
| 20260902003015 | 58 | 45 | 0.0 | 0.0 | 0.00 | 0.65 | 0.65 | 99 | 1146.7 |
| 20260902002028 | 58 | 67 | 0.0 | 1.0 | 0.00 | 0.65 | 0.65 | 100 | 1146.7 |
| 20260902001011 | 58 | 106 | 3.0 | 5.0 | 0.00 | 0.65 | 0.65 | 99 | 1146.8 |
| 20260902000028 | 58 | 16 | 0.0 | 3.0 | 0.00 | 0.65 | 0.65 | 100 | 1146.6 |
| 20260901235013 | 58 | 62 | 2.0 | 5.0 | 0.00 | 0.65 | 0.65 | 100 | 1146.5 |
| 20260901234111 | 59 | 94 | 2.0 | 5.0 | 0.00 | 0.65 | 0.65 | 100 | 1146.4 |
| 20260901233113 | 59 | 90 | 4.0 | 7.0 | 0.01 | 0.65 | 0.65 | 99 | 1146.2 |
| 20260901232114 | 59 | 337 | 2.0 | 5.0 | 0.01 | 0.65 | 0.65 | 99 | 1146.3 |
| 20260901230213 | 59 | 90 | 3.0 | 5.0 | 0.01 | 0.65 | 0.65 | 100 | 1146.3 |
| 20260901225312 | 60 | 90 | 1.0 | 3.0 | 0.02 | 0.65 | 0.65 | 100 | 1146.5 |
| 20260901224328 | 60 | 60 | 2.0 | 5.0 | 0.02 | 0.65 | 0.65 | 100 | 1146.5 |
| 20260901223415 | 60 | 124 | 2.0 | 4.0 | 0.02 | 0.64 | 0.64 | 99 | 1146.4 |
| 20260901222512 | 60 | 92 | 3.0 | 9.0 | 0.02 | 0.64 | 0.64 | 100 | 1146.3 |
| 20260901221514 | 60 | 145 | 3.0 | 5.0 | 0.03 | 0.64 | 0.64 | 99 | 1146.1 |
| 20260901220512 | 61 | 72 | 3.0 | 5.0 | 0.03 | 0.64 | 0.64 | 99 | 1145.9 |
| 20260901215514 | 61 | 49 | 2.0 | 4.0 | 0.03 | 0.63 | 0.63 | 99 | 1145.8 |
| 20260901214512 | 61 | 300 | 0.0 | 2.0 | 0.04 | 0.63 | 0.63 | 98 | 1146.0 |
| 20260901213513 | 61 | 108 | 0.0 | 1.0 | 0.04 | 0.62 | 0.62 | 99 | 1145.8 |
| 20260901212512 | 61 | 90 | 4.0 | 7.0 | 0.05 | 0.62 | 0.62 | 99 | 1145.5 |
| 20260901205614 | 62 | 82 | 4.0 | 6.0 | 0.03 | 0.60 | 0.60 | 98 | 1145.6 |
| 20260901204712 | 63 | 89 | 5.0 | 9.0 | 0.02 | 0.59 | 0.59 | 98 | 1145.4 |
| 20260901203712 | 63 | 108 | 4.0 | 6.0 | 0.01 | 0.57 | 0.57 | 98 | 1145.3 |
| 20260901202711 | 63 | 71 | 4.0 | 7.0 | 0.02 | 0.57 | 0.57 | 99 | 1145.3 |
| 20260901195713 | 63 | 128 | 2.0 | 4.0 | 0.02 | 0.57 | 0.57 | 98 | 1145.0 |
| 20260901194812 | 63 | 94 | 3.0 | 5.0 | 0.03 | 0.57 | 0.57 | 98 | 1144.9 |
| 20260901193813 | 63 | 78 | 1.0 | 2.0 | 0.04 | 0.57 | 0.57 | 99 | 1145.0 |
| 20260901192912 | 63 | 45 | 0.0 | 0.0 | 0.04 | 0.57 | 0.56 | 99 | 1145.0 |
| 20260901191912 | 63 | 70 | 4.0 | 8.0 | 0.04 | 0.56 | 0.56 | 99 | 1145.0 |
| 20260901191012 | 63 | 83 | 2.0 | 4.0 | 0.04 | 0.55 | 0.55 | 99 | 1144.8 |
| 20260901190015 | 63 | 71 | 2.0 | 4.0 | 0.04 | 0.55 | 0.55 | 99 | 1144.9 |
| 20260901185015 | 63 | 90 | 3.0 | 5.0 | 0.03 | 0.54 | 0.54 | 98 | 1144.9 |
| 20260901184013 | 63 | 90 | 0.0 | 3.0 | 0.02 | 0.53 | 0.53 | 99 | 1145.0 |
| 20260901183111 | 63 | 187 | 0.0 | 4.0 | 0.02 | 0.53 | 0.53 | 99 | 1145.2 |
| 20260901182113 | 63 | 90 | 2.0 | 4.0 | 0.02 | 0.52 | 0.52 | 99 | 1145.0 |
| 20260901181114 | 63 | 192 | 2.0 | 4.0 | 0.02 | 0.51 | 0.51 | 100 | 1145.0 |
| 20260901180212 | 63 | 101 | 2.0 | 3.0 | 0.02 | 0.51 | 0.51 | 99 | 1144.8 |
| 20260901175212 | 63 | 90 | 4.0 | 6.0 | 0.02 | 0.51 | 0.51 | 98 | 1144.8 |
| 20260901174213 | 63 | 84 | 1.0 | 3.0 | 0.02 | 0.51 | 0.51 | 99 | 1144.7 |
| 20260901173311 | 63 | 108 | 1.0 | 4.0 | 0.02 | 0.51 | 0.51 | 100 | 1144.7 |
| 20260901172315 | 63 | 87 | 1.0 | 3.0 | 0.01 | 0.50 | 0.50 | 99 | 1144.7 |
| 20260901170313 | 62 | 132 | 2.0 | 4.0 | 0.02 | 0.49 | 0.49 | 98 | 1144.6 |
| 20260901165413 | 63 | 84 | 3.0 | 9.0 | 0.08 | 0.49 | 0.49 | 99 | 1144.7 |
| 20260901164413 | 63 | 95 | 3.0 | 7.0 | 0.11 | 0.49 | 0.49 | 99 | 1144.5 |
| 20260901163510 | 63 | 353 | 0.0 | 2.0 | 0.14 | 0.49 | 0.49 | 98 | 1144.3 |
| 20260901162512 | 63 | 81 | 2.0 | 3.0 | 0.15 | 0.49 | 0.49 | 98 | 1144.3 |
| 20260901160612 | 63 | 74 | 3.0 | 6.0 | 0.17 | 0.49 | 0.48 | 99 | 1143.5 |
| 20260901154627 | 62 | 61 | 2.0 | 4.0 | 0.07 | 0.39 | 0.38 | 98 | 1144.8 |
| 20260901153713 | 63 | 22 | 0.0 | 2.0 | 0.03 | 0.35 | 0.35 | 99 | 1144.6 |
| 20260901151812 | 62 | 74 | 2.0 | 4.0 | 0.02 | 0.33 | 0.33 | 98 | 1144.3 |
| 20260901150812 | 62 | 45 | 0.0 | 2.0 | 0.01 | 0.32 | 0.32 | 99 | 1144.5 |
| 20260901145911 | 62 | 75 | 3.0 | 6.0 | 0.02 | 0.32 | 0.32 | 98 | 1144.7 |
| 20260901145812 | 62 | 90 | 2.0 | 6.0 | 0.02 | 0.32 | 0.32 | 99 | 1144.6 |
| 20260901144830 | 62 | 53 | 1.0 | 3.0 | 0.03 | 0.32 | 0.32 | 99 | 1144.6 |
| 20260901143913 | 62 | 69 | 6.0 | 7.0 | 0.03 | 0.32 | 0.32 | 98 | 1144.5 |
| 20260901143011 | 62 | 67 | 3.0 | 4.0 | 0.03 | 0.32 | 0.32 | 99 | 1144.5 |
| 20260901142013 | 62 | 70 | 3.0 | 4.0 | 0.02 | 0.31 | 0.31 | 98 | 1144.6 |
| 20260901141012 | 62 | 59 | 2.0 | 4.0 | 0.02 | 0.31 | 0.31 | 99 | 1145.2 |
| 20260901140111 | 62 | 69 | 3.0 | 5.0 | 0.01 | 0.30 | 0.30 | 98 | 1145.1 |
| 20260901135112 | 62 | 90 | 2.0 | 4.0 | 0.00 | 0.28 | 0.28 | 98 | 1145.0 |
| 20260901132112 | 62 | 53 | 4.0 | 6.0 | 0.01 | 0.28 | 0.28 | 99 | 1144.9 |